Latest Weather Observations for Tasman Island

IDT60901

Issued at 2:05 am EDT Friday 31 October 2014 (issued every 10 minutes, with the page automatically refreshed every 10 minutes)

About weather observations | Map of Hobart area stations | Latest observations for Hobart area | Other Formats
Station Details ID: 094155 Name: TASMAN ISLAND Lat: -43.24 Lon: 148.00 Height: 240.0 m
Data from the previous 72 hours. | See also: Recent months at Tasman Island
Date/Time
EDT
Tmp

°C
App
Tmp
°C
Dew
Point
°C
Rel
Hum
%
Delta-T

°C
Wind Press
QNH
hPa
Press
MSL
hPa
Rain
since
9 am
mm
Dir
 
Spd
km/h
Gust
km/h
Spd
kts
Gust
kts
31/02:00am 11.0 4.9 6.7 75 2.1 NW 28 37 15 20 1006.7 1006.8 1.8
31/01:30am 10.9 5.9 6.5 74 2.1 NW 22 33 12 18 1006.9 1007.0 1.8
31/01:00am 10.9 6.3 6.6 75 2.1 NW 20 30 11 16 1007.5 1007.6 1.8
31/12:30am 10.9 5.5 6.3 73 2.2 NW 24 33 13 18 1007.9 1008.0 1.8
31/12:00am 10.5 6.5 6.8 78 1.8 NNW 17 24 9 13 1008.0 1008.1 1.8
 
Date/Time
EDT
Tmp

°C
App
Tmp
°C
Dew
Point
°C
Rel
Hum
%
Delta-T

°C
Wind Press
QNH
hPa
Press
MSL
hPa
Rain
since
9 am
mm
Dir
 
Spd
km/h
Gust
km/h
Spd
kts
Gust
kts
30/11:30pm 10.7 7.4 6.6 76 2.0 NW 13 19 7 10 1008.2 1008.3 1.8
30/11:00pm 10.4 7.5 6.5 77 1.9 NW 11 17 6 9 1008.2 1008.3 1.8
30/10:30pm 9.9 7.8 8.3 90 0.8 NNW 9 28 5 15 1008.4 1008.5 1.8
30/10:00pm 9.8 7.2 9.2 96 0.3 NNE 13 20 7 11 1008.6 1008.8 1.8
30/09:30pm 9.6 7.5 8.4 92 0.6 N 9 15 5 8 1008.6 1008.8 1.8
30/09:00pm 9.6 7.4 8.0 90 0.8 N 9 17 5 9 1008.8 1009.0 1.8
30/08:30pm 9.7 7.9 7.3 85 1.2 W 6 17 3 9 1008.3 1008.4 1.8
30/08:00pm 9.7 8.0 7.5 86 1.1 E 6 17 3 9 1008.2 1008.3 1.8
30/07:30pm 9.7 7.4 7.6 87 1.0 S 9 30 5 16 1007.9 1008.0 1.8
30/07:00pm 9.8 7.6 7.7 87 1.0 E 9 22 5 12 1007.6 1007.7 1.8
30/06:30pm 10.0 7.5 8.1 88 0.9 W 11 26 6 14 1007.4 1007.5 1.8
30/06:00pm 9.8 7.3 8.1 89 0.8 WSW 11 30 6 16 1007.3 1007.4 1.8
30/05:30pm 9.7 6.3 7.6 87 1.0 SW 15 33 8 18 1007.4 1007.5 1.8
30/05:00pm 9.7 5.6 7.8 88 0.9 SSW 19 39 10 21 1007.3 1007.4 1.8
30/04:30pm 9.4 3.9 7.7 89 0.8 SW 26 43 14 23 1007.2 1007.3 1.8
30/04:00pm 9.1 3.7 8.0 93 0.5 SW 26 43 14 23 1007.2 1007.3 1.8
30/03:30pm 8.9 3.8 7.8 93 0.5 SSW 24 44 13 24 1007.3 1007.4 1.6
30/03:18pm 9.2 3.3 7.3 88 0.9 SSW 28 48 15 26 1007.1 1007.2 1.4
30/03:00pm 9.6 5.7 7.2 85 1.2 S 17 41 9 22 1006.9 1007.0 1.4
30/02:30pm 9.9 4.6 7.0 82 1.4 SSW 24 50 13 27 1007.0 1007.1 1.4
30/02:00pm 9.6 4.4 7.4 86 1.1 SSW 24 43 13 23 1007.2 1007.3 1.4
30/01:30pm 9.4 5.0 7.3 87 1.0 SSW 20 39 11 21 1007.0 1007.1 1.4
30/01:00pm 9.2 4.8 7.5 89 0.8 SW 20 46 11 25 1007.2 1007.3 1.4
30/12:30pm 9.1 4.9 7.5 90 0.8 SW 19 46 10 25 1007.3 1007.4 1.4
30/12:00pm 8.6 5.7 8.3 98 0.1 SW 13 32 7 17 1007.5 1007.6 1.2
30/11:30am 8.0 1.8 7.9 99 0.0 SW 30 52 16 28 1007.4 1007.5 0.8
30/11:06am 8.2 2.4 8.1 99 0.0 SSW 28 48 15 26 1007.5 1007.6 0.6
30/11:00am 8.4 4.2 8.3 99 0.0 SSW 20 52 11 28 1007.6 1007.7 0.2
30/10:30am 8.2 4.6 8.2 100 0.0 SSW 17 37 9 20 1007.6 1007.7 0.0
30/10:00am 8.3 3.0 8.3 100 0.0 SW 26 37 14 20 1007.5 1007.6 0.0
30/09:30am 8.5 2.1 8.5 100 0.0 SW 32 50 17 27 1007.0 1007.1 0.0
30/09:00am 8.8 3.2 8.8 100 0.0 SSW 28 52 15 28 1006.9 1007.0 1.8
30/08:44am 8.7 3.1 8.7 100 0.0 SW 28 54 15 29 1007.0 1007.1 1.8
30/08:30am 8.8 2.8 8.8 100 0.0 SW 30 44 16 24 1007.0 1007.1 1.8
30/08:05am 8.8 2.8 8.8 100 0.0 SW 30 50 16 27 1006.8 1006.9 1.6
30/08:00am 8.9 3.3 8.9 100 0.0 SW 28 43 15 23 1006.8 1006.9 1.6
30/07:30am 8.9 4.1 8.8 99 0.0 SW 24 46 13 25 1006.6 1006.7 0.8
30/07:00am 9.6 7.1 8.2 91 0.7 SSW 11 33 6 18 1006.3 1006.4 0.0
30/06:30am 10.8 8.8 7.1 78 1.8 NW 7 20 4 11 1006.0 1006.1 0.0
30/06:00am 10.4 7.1 8.0 85 1.2 W 15 26 8 14 1005.3 1005.5 0.0
30/05:30am 10.1 7.1 7.5 84 1.3 W 13 30 7 16 1005.1 1005.3 0.0
30/05:00am 10.9 7.6 6.6 75 2.1 W 13 39 7 21 1005.2 1005.4 0.0
30/04:30am 11.1 8.2 6.6 74 2.2 W 11 39 6 21 1005.3 1005.5 0.0
30/04:00am 11.1 7.6 5.6 69 2.6 WNW 13 32 7 17 1005.3 1005.5 0.0
30/03:30am 11.0 8.3 5.7 70 2.5 WNW 9 41 5 22 1005.1 1005.3 0.0
30/03:00am 10.8 7.9 6.4 74 2.1 W 11 28 6 15 1005.4 1005.6 0.0
30/02:30am 11.1 9.0 6.6 74 2.2 W 7 22 4 12 1005.4 1005.6 0.0
30/02:00am 11.2 9.1 6.7 74 2.2 SSW 7 26 4 14 1005.3 1005.5 0.0
30/01:30am 11.4 8.5 6.5 72 2.3 W 11 26 6 14 1005.6 1005.8 0.0
30/01:00am 11.0 6.5 6.9 76 2.0 WNW 20 35 11 19 1005.9 1006.0 0.0
30/12:30am 11.2 8.8 6.9 75 2.1 WNW 9 26 5 14 1006.0 1006.1 0.0
30/12:00am 11.4 7.8 6.9 74 2.2 NW 15 32 8 17 1005.8 1005.9 0.0
 
Date/Time
EDT
Tmp

°C
App
Tmp
°C
Dew
Point
°C
Rel
Hum
%
Delta-T

°C
Wind Press
QNH
hPa
Press
MSL
hPa
Rain
since
9 am
mm
Dir
 
Spd
km/h
Gust
km/h
Spd
kts
Gust
kts
29/11:30pm 11.5 9.1 7.0 74 2.2 ENE 9 24 5 13 1006.3 1006.4 0.0
29/11:00pm 11.8 9.4 6.9 72 2.4 NW 9 41 5 22 1006.1 1006.2 0.0
29/10:30pm 12.0 8.0 6.5 69 2.6 W 17 41 9 22 1005.8 1005.9 0.0
29/10:00pm 12.4 10.1 5.8 64 3.1 SW 7 26 4 14 1006.3 1006.4 0.0
29/09:30pm 12.7 8.5 5.6 62 3.4 WNW 17 54 9 29 1006.0 1006.1 0.0
29/09:00pm 13.0 7.4 5.4 60 3.6 WNW 24 54 13 29 1005.8 1005.9 0.0
29/08:30pm 13.2 8.1 5.9 61 3.5 WNW 22 59 12 32 1005.5 1005.7 0.0
29/08:00pm 13.3 7.8 5.7 60 3.6 NW 24 56 13 30 1005.2 1005.4 0.0
29/07:51pm 13.3 6.6 5.7 60 3.6 NW 30 56 16 30 1005.1 1005.3 0.0
29/07:30pm 13.4 10.1 6.3 62 3.4 NNW 13 37 7 20 1004.9 1005.1 0.0
29/07:00pm 14.1 9.6 6.0 58 3.9 W 19 56 10 30 1004.6 1004.7 0.0
29/06:30pm 14.6 8.7 5.9 56 4.2 W 26 52 14 28 1004.6 1004.7 0.0
29/06:00pm 14.8 8.4 5.1 52 4.6 WNW 28 57 15 31 1004.7 1004.8 0.0
29/05:56pm 14.7 8.3 5.0 52 4.6 W 28 57 15 31 1004.5 1004.6 0.0
29/05:30pm 15.1 10.2 5.0 51 4.8 W 20 43 11 23 1004.3 1004.4 0.0
29/05:00pm 15.1 10.3 5.6 53 4.6 WNW 20 57 11 31 1005.2 1005.4 0.0
29/04:30pm 15.1 10.9 5.9 54 4.5 WNW 17 41 9 22 1005.0 1005.2 0.0
29/04:00pm 14.9 11.2 6.2 56 4.3 WNW 15 39 8 21 1004.9 1005.1 0.0
29/03:30pm 15.2 12.2 6.0 54 4.5 WNW 11 50 6 27 1004.9 1005.1 0.0
29/03:00pm 15.5 10.7 5.4 51 4.9 W 20 52 11 28 1005.1 1005.3 0.0
29/02:33pm 15.4 9.1 5.6 52 4.7 NW 28 63 15 34 1005.4 1005.6 0.0
29/02:30pm 15.3 9.7 5.5 52 4.7 NW 24 63 13 34 1005.4 1005.6 0.0
29/02:09pm 14.9 8.6 5.7 54 4.4 WNW 28 59 15 32 1005.6 1005.8 0.0
29/02:00pm 14.9 11.1 5.7 54 4.5 WNW 15 44 8 24 1005.8 1005.9 0.0
29/01:30pm 13.6 4.7 5.3 57 3.9 NW 41 59 22 32 1006.2 1006.3 0.0
29/01:01pm 13.4 5.3 5.1 57 3.9 NW 37 57 20 31 1006.4 1006.5 0.0
29/01:00pm 13.4 4.6 5.6 59 3.7 NW 41 57 22 31 1006.5 1006.6 0.0
29/12:50pm 13.7 6.4 5.3 57 4.0 NW 33 63 18 34 1006.7 1006.8 0.0
29/12:30pm 14.2 7.5 5.6 56 4.1 WNW 30 41 16 22 1007.0 1007.1 0.0
29/12:20pm 13.8 6.7 5.7 58 3.9 NW 32 50 17 27 1007.1 1007.2 0.0
29/12:00pm 13.3 6.1 5.7 60 3.6 WNW 33 50 18 27 1007.1 1007.2 0.0
29/11:30am 12.4 4.7 5.3 62 3.3 NW 35 50 19 27 1007.6 1007.7 0.0
29/11:22am 11.0 3.5 4.7 65 2.9 NW 33 50 18 27 1007.8 1007.9 0.0
29/11:00am 11.0 7.0 5.1 67 2.7 NW 15 26 8 14 1008.2 1008.3 0.0
29/10:30am 10.4 1.8 4.5 67 2.7 NW 39 52 21 28 1008.2 1008.3 0.0
29/10:13am 10.4 3.1 4.5 67 2.7 NW 32 50 17 27 1008.3 1008.4 0.0
29/10:00am 10.2 2.7 4.4 67 2.6 NW 33 48 18 26 1008.3 1008.4 0.0
29/09:30am 9.8 4.3 3.8 66 2.7 WNW 22 35 12 19 1008.5 1008.7 0.0
29/09:00am 9.1 2.0 3.5 68 2.5 NW 30 41 16 22 1008.4 1008.5 5.4
29/08:30am 9.6 3.3 4.0 68 2.5 WNW 26 41 14 22 1008.3 1008.4 5.4
29/08:00am 8.4 1.7 3.5 71 2.1 NW 28 39 15 21 1008.3 1008.4 5.4
29/07:30am 8.4 3.3 2.8 68 2.4 WNW 19 39 10 21 1008.0 1008.1 5.4
29/07:00am 7.5 3.5 3.0 73 1.9 WNW 13 35 7 19 1008.1 1008.2 5.4
29/06:30am 7.5 2.7 2.4 70 2.1 WNW 17 35 9 19 1007.9 1008.0 5.4
29/06:00am 7.5 4.3 3.0 73 1.9 NE 9 35 5 19 1007.2 1007.3 5.4
29/05:30am 7.6 3.5 2.1 68 2.3 WSW 13 35 7 19 1006.6 1006.7 5.4
29/05:00am 7.6 3.5 2.1 68 2.3 N 13 46 7 25 1006.2 1006.3 5.4
29/04:30am 7.6 3.5 2.3 69 2.2 NE 13 32 7 17 1005.8 1005.9 5.4
29/04:04am 7.9 1.1 3.0 71 2.1 WSW 28 67 15 36 1005.3 1005.5 5.4
29/04:00am 8.0 1.6 3.3 72 2.0 W 26 61 14 33 1005.2 1005.4 5.4
29/03:30am 7.8 -0.7 1.0 62 2.8 WSW 35 76 19 41 1004.4 1004.5 5.4
29/03:13am 7.7 -0.6 -0.3 57 3.2 WSW 33 83 18 45 1004.4 1004.5 5.4
29/03:00am 7.4 0.2 0.4 61 2.8 WSW 28 56 15 30 1004.9 1005.1 5.4
29/02:59am 7.4 -0.6 0.4 61 2.8 WSW 32 56 17 30 1005.0 1005.2 5.4
29/02:30am 7.0 1.1 1.9 70 2.1 W 22 61 12 33 1005.0 1005.2 5.4
29/02:01am 6.6 -0.2 3.2 79 1.4 W 28 82 15 44 1004.8 1004.9 5.4
29/02:00am 6.5 0.8 3.1 79 1.4 WSW 22 82 12 44 1004.7 1004.8 5.4
29/01:40am 6.8 2.1 3.4 79 1.5 SSE 17 41 9 22 1004.4 1004.5 5.2
29/01:30am 6.6 -3.1 3.0 78 1.5 WSW 43 95 23 51 1004.1 1004.2 5.2
29/01:20am 5.7 -5.3 2.9 82 1.2 WSW 50 89 27 48 1004.3 1004.4 5.2
29/01:15am 7.4 0.6 3.3 75 1.8 SW 28 67 15 36 1003.9 1004.0 5.0
29/01:00am 7.2 3.2 2.9 74 1.8 E 13 30 7 16 1004.4 1004.5 5.0
29/12:51am 7.7 3.3 2.6 70 2.2 SSW 15 43 8 23 1004.5 1004.6 5.0
29/12:30am 7.6 -1.3 3.3 74 1.9 WSW 39 80 21 43 1004.0 1004.1 5.0
29/12:21am 7.5 0.7 3.2 74 1.8 WSW 28 72 15 39 1003.6 1003.7 5.0
29/12:15am 7.6 0.9 3.6 76 1.7 SW 28 52 15 28 1003.5 1003.6 5.0
29/12:14am 7.6 1.7 4.0 78 1.6 WNW 24 52 13 28 1003.5 1003.6 5.0
29/12:00am 6.7 -1.9 4.5 86 1.0 WSW 39 72 21 39 1003.4 1003.5 5.0
 
Date/Time
EDT
Tmp

°C
App
Tmp
°C
Dew
Point
°C
Rel
Hum
%
Delta-T

°C
Wind Press
QNH
hPa
Press
MSL
hPa
Rain
since
9 am
mm
Dir
 
Spd
km/h
Gust
km/h
Spd
kts
Gust
kts
28/11:53pm 6.3 -1.6 4.6 89 0.7 SW 35 69 19 37 1003.2 1003.3 5.0
28/11:37pm 6.1 -6.1 3.9 86 0.9 SW 57 83 31 45 1002.6 1002.7 5.0
28/11:36pm 6.3 -0.4 3.5 82 1.2 SW 28 83 15 45 1002.6 1002.7 5.0
28/11:30pm 7.2 1.2 3.6 78 1.6 SW 24 63 13 34 1002.3 1002.4 5.0
28/11:19pm 7.1 0.2 4.6 84 1.1 W 30 59 16 32 1002.0 1002.1 5.0
28/11:00pm 5.6 -4.3 4.7 94 0.4 WSW 46 82 25 44 1001.2 1001.3 4.8
28/10:44pm 5.8 -3.7 3.8 87 0.9 SW 43 80 23 43 1001.2 1001.3 4.2
28/10:39pm 6.9 -0.8 3.3 78 1.5 W 33 80 18 43 1001.4 1001.4 4.0
28/10:30pm 6.4 0.5 4.1 85 1.0 WSW 24 78 13 42 1000.8 1000.9 4.0
28/10:00pm 7.1 0.3 3.3 77 1.6 W 28 76 15 41 1000.1 1000.2 3.4
28/09:31pm 7.6 0.9 3.5 75 1.8 W 28 80 15 43 999.4 999.5 3.2
28/09:30pm 7.5 1.1 3.4 75 1.8 W 26 72 14 39 999.3 999.4 3.2
28/09:00pm 6.6 -0.5 3.4 80 1.4 W 30 91 16 49 998.7 998.8 3.2
28/08:30pm 6.6 0.1 4.8 88 0.8 WSW 28 80 15 43 997.9 997.9 3.2
28/08:00pm 6.6 -3.7 2.9 77 1.6 WSW 46 107 25 58 996.5 996.6 2.0
28/07:57pm 7.0 -2.3 2.7 74 1.8 WSW 41 107 22 58 996.1 996.2 2.0
28/07:55pm 7.1 -0.8 2.4 72 2.0 WSW 33 76 18 41 996.1 996.2 1.8
28/07:46pm 8.3 -0.5 3.6 72 2.1 N 39 93 21 50 996.0 996.1 1.8
28/07:30pm 8.2 0.3 2.4 67 2.5 WSW 33 76 18 41 995.1 995.2 1.8
28/07:14pm 8.0 0.9 3.3 72 2.0 WSW 30 80 16 43 995.3 995.4 1.8
28/07:00pm 6.9 2.6 3.3 78 1.6 S 15 46 8 25 994.8 994.9 1.6
28/06:58pm 6.7 0.3 3.3 79 1.5 NW 26 59 14 32 994.4 994.4 1.6
28/06:54pm 6.7 -4.7 2.8 76 1.6 WSW 52 102 28 55 994.5 994.6 1.6
28/06:53pm 7.2 -1.4 2.7 73 1.9 W 37 93 20 50 994.4 994.4 1.4
28/06:35pm 8.3 1.2 1.5 62 2.8 NNW 28 72 15 39 994.1 994.1 1.4
28/06:30pm 7.8 2.5 1.9 66 2.5 W 19 52 10 28 994.0 994.0 1.4
28/06:22pm 7.5 0.5 2.2 69 2.2 NW 28 69 15 37 993.6 993.6 1.4
28/06:00pm 8.3 2.7 1.0 60 3.0 NW 20 63 11 34 992.9 992.9 1.4
28/05:30pm 8.6 3.0 1.3 60 3.0 WSW 20 72 11 39 992.4 992.5 1.4
28/05:00pm 8.3 2.6 0.5 58 3.2 S 20 50 11 27 992.3 992.4 1.4
28/04:49pm 9.1 1.9 0.6 55 3.5 NW 28 93 15 50 992.0 992.1 1.4
28/04:30pm 9.0 3.4 1.2 58 3.2 WNW 20 61 11 33 991.4 991.5 1.4
28/04:22pm 8.9 1.7 0.9 57 3.3 NW 28 67 15 36 991.8 991.9 1.4
28/04:00pm 8.7 2.8 1.6 61 3.0 WNW 22 63 12 34 992.0 992.1 1.4
28/03:30pm 7.8 2.6 3.3 73 1.9 NNW 20 52 11 28 991.8 991.9 1.4
28/03:28pm 7.1 2.4 3.2 76 1.7 W 17 74 9 40 991.5 991.6 1.4
28/03:19pm 7.3 -2.2 1.8 68 2.3 WSW 41 96 22 52 992.0 992.1 1.4
28/03:17pm 7.9 0.8 1.3 63 2.7 SSW 28 95 15 51 992.0 992.1 1.4
28/03:00pm 8.8 4.2 1.5 60 3.1 W 15 65 8 35 992.0 992.1 1.4
28/02:30pm 6.9 -1.6 0.6 64 2.5 W 35 65 19 35 991.6 991.7 1.4
28/02:09pm 4.9 -2.3 3.1 88 0.8 WNW 30 69 16 37 991.7 991.8 1.4
28/02:00pm 5.8 0.5 2.8 81 1.3 W 20 56 11 30 991.7 991.8 0.8
28/01:53pm 6.2 -1.5 2.1 75 1.7 WSW 32 67 17 36 991.5 991.6 0.6
28/01:51pm 6.1 0.2 2.0 75 1.7 ESE 22 54 12 29 991.0 991.1 0.6
28/01:33pm 7.0 -3.1 0.5 63 2.6 WSW 43 74 23 40 991.6 991.7 0.4
28/01:30pm 7.6 2.9 1.2 64 2.6 WSW 15 39 8 21 991.9 992.0 0.4
28/01:07pm 7.4 2.1 2.9 73 1.9 W 20 63 11 34 991.5 991.6 0.4
28/01:04pm 7.4 -3.7 2.7 72 2.0 NW 50 82 27 44 991.5 991.6 0.4
28/01:00pm 7.6 2.1 1.9 67 2.4 NW 20 57 11 31 991.0 991.1 0.4
28/12:50pm 7.3 0.3 2.0 69 2.2 NNW 28 67 15 36 990.7 990.7 0.4
28/12:30pm 7.0 3.0 2.9 75 1.7 S 13 41 7 22 991.1 991.2 0.4
28/12:00pm 7.9 2.7 2.2 67 2.4 NW 19 44 10 24 990.9 990.9 0.2
28/11:30am 7.4 2.8 1.5 66 2.4 W 15 57 8 31 991.1 991.2 0.2
28/11:05am 6.8 -0.6 2.1 72 2.0 NW 30 56 16 30 991.1 991.2 0.2
28/11:00am 6.7 0.4 1.8 71 2.0 NW 24 57 13 31 991.0 991.1 0.2
28/10:40am 6.9 -0.2 1.4 68 2.2 W 28 61 15 33 990.8 990.8 0.2
28/10:30am 7.0 1.3 2.9 75 1.7 WNW 22 63 12 34 991.1 991.2 0.2
28/10:05am 5.9 -0.8 3.7 86 0.9 WNW 28 57 15 31 991.1 991.2 0.2
28/10:00am 5.8 -0.5 3.6 86 0.9 WNW 26 57 14 31 991.0 991.1 0.2
28/09:37am 5.0 -2.1 3.5 90 0.6 WNW 30 72 16 39 990.5 990.5 0.2
28/09:30am 5.0 -0.1 3.2 88 0.8 WSW 19 89 10 48 990.9 990.9 0.2
28/09:00am 4.7 -0.4 3.2 90 0.6 NNW 19 46 10 25 990.7 990.7 5.6
28/08:45am 5.4 -1.7 1.1 74 1.7 SW 28 67 15 36 990.5 990.5 4.4
28/08:30am 6.8 0.5 1.7 70 2.1 NW 24 50 13 27 990.1 990.1 4.2
28/08:11am 6.8 -0.1 2.3 73 1.9 NW 28 57 15 31 989.7 989.7 4.2
28/08:10am 6.8 1.3 2.1 72 2.0 N 20 57 11 31 989.8 989.8 4.2
28/08:02am 7.2 -2.3 1.7 68 2.3 NNW 41 89 22 48 990.1 990.1 4.2
28/08:00am 7.7 3.1 1.5 65 2.6 NNE 15 35 8 19 990.1 990.1 4.2
28/07:30am 8.0 0.5 1.4 63 2.7 WNW 30 54 16 29 989.6 989.6 4.2
28/07:00am 7.9 0.9 2.2 67 2.4 NW 28 52 15 28 989.7 989.7 4.2
28/06:56am 7.9 0.9 2.2 67 2.4 NW 28 52 15 28 989.6 989.6 4.2
28/06:30am 7.4 3.0 2.5 71 2.1 WNW 15 48 8 26 989.9 989.9 4.2
28/06:00am 7.1 2.7 4.6 84 1.1 W 17 44 9 24 990.5 990.5 4.2
28/05:30am 7.4 2.6 4.9 84 1.1 WSW 19 39 10 21 990.3 990.3 4.2
28/05:00am 7.4 3.6 5.7 89 0.8 W 15 37 8 20 989.7 989.7 4.2
28/04:30am 7.4 -2.4 5.5 88 0.9 WNW 46 67 25 36 989.9 989.9 4.0
28/04:00am 7.4 -1.7 6.0 91 0.6 WNW 43 70 23 38 989.7 989.7 3.8
28/03:30am 8.0 -4.0 4.8 80 1.4 NW 57 80 31 43 989.1 989.1 1.8
28/03:00am 9.4 -3.3 2.9 64 2.9 NW 59 98 32 53 989.5 989.5 1.4
28/02:42am 9.0 -1.2 3.0 66 2.6 NW 46 82 25 44 989.8 989.8 1.4
28/02:30am 8.5 -0.8 2.7 67 2.5 NW 41 63 22 34 990.2 990.2 1.4
28/02:09am 8.2 -1.5 2.7 68 2.3 NW 43 61 23 33 990.7 990.7 1.4

Latest Capital City Observations: Canberra | Sydney | Melbourne | Brisbane | Adelaide | Perth | Hobart | Darwin

Other Formats:

Comma delimited format used in spreadsheet applications
http://www.bom.gov.au/fwo/IDT60901/IDT60901.95986.axf

JavaScript Object Notation format (JSON) in row-major order
http://www.bom.gov.au/fwo/IDT60901/IDT60901.95986.json